This is the latest recevied weather packets stored in our database for station/object HS3PIK-2. If no packets are shown the sender has not sent any weather packets the latest 10 day(s).
| Time | Temp. | Humidity | Pressure | Rain* | Wind** | Luminosity | Snow |
|---|---|---|---|---|---|---|---|
| 1788614738 | 30.56° C | 77% | - | - | - | 0 W/m² | - |
| 1788614410 | 30° C | 76% | - | - | - | 0 W/m² | - |
| 1788614085 | 30.56° C | 76% | - | - | - | 0 W/m² | - |
| 1788613758 | 30.56° C | 76% | - | - | - | 0 W/m² | - |
| 1788613428 | 31.11° C | 74% | - | - | - | 0 W/m² | - |
| 1788613101 | 31.67° C | 73% | - | - | - | 0 W/m² | - |
| 1788612773 | 31.67° C | 74% | - | - | - | 0 W/m² | - |
| 1788612449 | 31.67° C | 75% | - | - | - | 0 W/m² | - |
| 1788612121 | 30.56° C | 76% | - | - | - | 0 W/m² | - |
| 1788611791 | 31.11° C | 75% | - | - | - | 0 W/m² | - |
| 1788611463 | 31.67° C | 72% | - | - | - | 0 W/m² | - |
| 1788611136 | 32.22° C | 73% | - | - | - | 0 W/m² | - |
| 1788610824 | 32.78° C | 72% | - | - | - | 0 W/m² | - |
| 1788610479 | 32.78° C | 72% | - | - | - | 0 W/m² | - |
| 1788610148 | 32.78° C | 72% | - | - | - | 0 W/m² | - |
| 1788609824 | 32.78° C | 72% | - | - | - | 0 W/m² | - |
| 1788609495 | 32.22° C | 73% | - | - | - | 0 W/m² | - |
| 1788609166 | 32.78° C | 72% | - | - | - | 0 W/m² | - |
| 1788608834 | 32.22° C | 74% | - | - | - | 0 W/m² | - |
| 1788608509 | 31.67° C | 74% | - | - | - | 0 W/m² | - |
| 1788608181 | 31.67° C | 74% | - | - | - | 0 W/m² | - |
| 1788607859 | 31.67° C | 74% | - | - | - | 0 W/m² | - |
| 1788607529 | 31.11° C | 74% | - | - | - | 0 W/m² | - |
| 1788607199 | 31.11° C | 74% | - | - | - | 0 W/m² | - |
| 1788606874 | 31.67° C | 73% | - | - | - | 0 W/m² | - |
* Rain since midnight (hover to see other rain measurements)
** Current wind speed in m/s (hover to see current wind gust speed)